sensor_id;sensor_type;location;lat;lon;timestamp;temperature;humidity
921;DHT22;447;51.332;6.778;2023-03-31T00:01:02;13.20;99.90
921;DHT22;447;51.332;6.778;2023-03-31T00:03:33;13.20;99.90
921;DHT22;447;51.332;6.778;2023-03-31T00:06:06;13.20;99.90
921;DHT22;447;51.332;6.778;2023-03-31T00:08:32;13.20;99.90
921;DHT22;447;51.332;6.778;2023-03-31T00:11:02;13.20;99.90
921;DHT22;447;51.332;6.778;2023-03-31T00:13:34;13.20;99.90
921;DHT22;447;51.332;6.778;2023-03-31T00:16:03;13.20;99.90
921;DHT22;447;51.332;6.778;2023-03-31T00:18:32;13.20;99.90
921;DHT22;447;51.332;6.778;2023-03-31T00:21:08;13.20;99.90
921;DHT22;447;51.332;6.778;2023-03-31T00:23:34;13.20;99.90
921;DHT22;447;51.332;6.778;2023-03-31T00:26:04;13.20;99.90
921;DHT22;447;51.332;6.778;2023-03-31T00:28:31;13.20;99.90
921;DHT22;447;51.332;6.778;2023-03-31T00:31:01;13.10;99.90
921;DHT22;447;51.332;6.778;2023-03-31T00:33:28;13.20;99.90
921;DHT22;447;51.332;6.778;2023-03-31T00:35:54;13.10;99.90
921;DHT22;447;51.332;6.778;2023-03-31T00:38:20;13.10;99.90
921;DHT22;447;51.332;6.778;2023-03-31T00:40:49;13.10;99.90
921;DHT22;447;51.332;6.778;2023-03-31T00:43:35;13.10;99.90
921;DHT22;447;51.332;6.778;2023-03-31T00:46:29;13.10;99.90
921;DHT22;447;51.332;6.778;2023-03-31T00:48:56;13.10;99.90
921;DHT22;447;51.332;6.778;2023-03-31T00:51:25;13.10;99.90
921;DHT22;447;51.332;6.778;2023-03-31T00:53:57;13.10;99.90
921;DHT22;447;51.332;6.778;2023-03-31T00:56:33;13.10;99.90
921;DHT22;447;51.332;6.778;2023-03-31T00:59:04;13.10;99.90
921;DHT22;447;51.332;6.778;2023-03-31T01:01:33;13.10;99.90
921;DHT22;447;51.332;6.778;2023-03-31T01:04:02;13.10;99.90
921;DHT22;447;51.332;6.778;2023-03-31T01:06:33;13.10;99.90
921;DHT22;447;51.332;6.778;2023-03-31T01:09:03;13.10;99.90
921;DHT22;447;51.332;6.778;2023-03-31T01:11:33;13.10;99.90
921;DHT22;447;51.332;6.778;2023-03-31T01:14:00;13.10;99.90
921;DHT22;447;51.332;6.778;2023-03-31T01:16:30;13.10;99.90
921;DHT22;447;51.332;6.778;2023-03-31T01:19:04;13.10;99.90
921;DHT22;447;51.332;6.778;2023-03-31T01:35:50;13.00;99.90
921;DHT22;447;51.332;6.778;2023-03-31T01:38:50;13.00;99.90
921;DHT22;447;51.332;6.778;2023-03-31T01:49:43;13.00;99.90
921;DHT22;447;51.332;6.778;2023-03-31T01:52:21;13.00;99.90
921;DHT22;447;51.332;6.778;2023-03-31T01:55:03;13.00;99.90
921;DHT22;447;51.332;6.778;2023-03-31T01:57:38;13.00;99.90
921;DHT22;447;51.332;6.778;2023-03-31T02:00:27;13.00;99.90
921;DHT22;447;51.332;6.778;2023-03-31T02:03:09;13.00;99.90
921;DHT22;447;51.332;6.778;2023-03-31T02:05:41;12.90;99.90
921;DHT22;447;51.332;6.778;2023-03-31T02:08:25;12.90;99.90
921;DHT22;447;51.332;6.778;2023-03-31T02:10:53;12.90;99.90
921;DHT22;447;51.332;6.778;2023-03-31T02:13:20;12.90;99.90
921;DHT22;447;51.332;6.778;2023-03-31T02:15:52;12.90;99.90
921;DHT22;447;51.332;6.778;2023-03-31T02:18:24;12.90;99.90
921;DHT22;447;51.332;6.778;2023-03-31T02:20:55;12.90;99.90
921;DHT22;447;51.332;6.778;2023-03-31T02:23:26;12.90;99.90
921;DHT22;447;51.332;6.778;2023-03-31T02:26:08;12.90;99.90
921;DHT22;447;51.332;6.778;2023-03-31T02:28:38;12.90;99.90
921;DHT22;447;51.332;6.778;2023-03-31T02:34:08;12.90;99.90
921;DHT22;447;51.332;6.778;2023-03-31T02:36:35;12.90;99.90
921;DHT22;447;51.332;6.778;2023-03-31T02:39:07;12.90;99.90
921;DHT22;447;51.332;6.778;2023-03-31T02:41:33;12.90;99.90
921;DHT22;447;51.332;6.778;2023-03-31T02:44:05;12.90;99.90
921;DHT22;447;51.332;6.778;2023-03-31T02:46:31;12.90;99.90
921;DHT22;447;51.332;6.778;2023-03-31T02:49:05;12.90;99.90
921;DHT22;447;51.332;6.778;2023-03-31T03:16:24;12.80;99.90
921;DHT22;447;51.332;6.778;2023-03-31T03:19:02;12.80;99.90
921;DHT22;447;51.332;6.778;2023-03-31T03:21:30;12.80;99.90
921;DHT22;447;51.332;6.778;2023-03-31T03:24:01;12.80;99.90
921;DHT22;447;51.332;6.778;2023-03-31T03:26:27;12.80;99.90
921;DHT22;447;51.332;6.778;2023-03-31T03:28:56;12.80;99.90
921;DHT22;447;51.332;6.778;2023-03-31T03:31:26;12.80;99.90
921;DHT22;447;51.332;6.778;2023-03-31T03:33:52;12.80;99.90
921;DHT22;447;51.332;6.778;2023-03-31T03:36:18;12.80;99.90
921;DHT22;447;51.332;6.778;2023-03-31T03:38:44;12.80;99.90
921;DHT22;447;51.332;6.778;2023-03-31T03:41:10;12.80;99.90
921;DHT22;447;51.332;6.778;2023-03-31T03:43:38;12.80;99.90
921;DHT22;447;51.332;6.778;2023-03-31T03:46:09;12.80;99.90
921;DHT22;447;51.332;6.778;2023-03-31T03:48:35;12.80;99.90
921;DHT22;447;51.332;6.778;2023-03-31T03:51:04;12.80;99.90
921;DHT22;447;51.332;6.778;2023-03-31T03:53:31;12.80;99.90
921;DHT22;447;51.332;6.778;2023-03-31T03:55:57;12.80;99.90
921;DHT22;447;51.332;6.778;2023-03-31T03:58:24;12.80;99.90
921;DHT22;447;51.332;6.778;2023-03-31T04:00:50;12.80;99.90
921;DHT22;447;51.332;6.778;2023-03-31T04:03:16;12.80;99.90
921;DHT22;447;51.332;6.778;2023-03-31T04:05:42;12.70;99.90
921;DHT22;447;51.332;6.778;2023-03-31T04:08:13;12.70;99.90
921;DHT22;447;51.332;6.778;2023-03-31T04:10:46;12.70;99.90
921;DHT22;447;51.332;6.778;2023-03-31T04:13:19;12.70;99.90
921;DHT22;447;51.332;6.778;2023-03-31T04:15:45;12.70;99.90
921;DHT22;447;51.332;6.778;2023-03-31T04:18:12;12.70;99.90
921;DHT22;447;51.332;6.778;2023-03-31T04:20:49;12.70;99.90
921;DHT22;447;51.332;6.778;2023-03-31T04:23:22;12.70;99.90
921;DHT22;447;51.332;6.778;2023-03-31T04:25:51;12.70;99.90
921;DHT22;447;51.332;6.778;2023-03-31T04:28:21;12.70;99.90
921;DHT22;447;51.332;6.778;2023-03-31T04:30:47;12.70;99.90
921;DHT22;447;51.332;6.778;2023-03-31T04:33:13;12.70;99.90
921;DHT22;447;51.332;6.778;2023-03-31T04:35:40;12.70;99.90
921;DHT22;447;51.332;6.778;2023-03-31T04:38:21;12.70;99.90
921;DHT22;447;51.332;6.778;2023-03-31T04:40:50;12.70;99.90
921;DHT22;447;51.332;6.778;2023-03-31T04:43:17;12.70;99.90
921;DHT22;447;51.332;6.778;2023-03-31T04:45:43;12.70;99.90
921;DHT22;447;51.332;6.778;2023-03-31T04:48:10;12.70;99.90
921;DHT22;447;51.332;6.778;2023-03-31T04:50:41;12.70;99.90
921;DHT22;447;51.332;6.778;2023-03-31T04:53:09;12.70;99.90
921;DHT22;447;51.332;6.778;2023-03-31T04:55:38;12.70;99.90
921;DHT22;447;51.332;6.778;2023-03-31T04:58:03;12.70;99.90
921;DHT22;447;51.332;6.778;2023-03-31T05:00:34;12.60;99.90
921;DHT22;447;51.332;6.778;2023-03-31T05:03:03;12.60;99.90
921;DHT22;447;51.332;6.778;2023-03-31T05:05:49;12.60;99.90
921;DHT22;447;51.332;6.778;2023-03-31T05:08:15;12.60;99.90
921;DHT22;447;51.332;6.778;2023-03-31T05:10:41;12.60;99.90
921;DHT22;447;51.332;6.778;2023-03-31T05:13:09;12.60;99.90
921;DHT22;447;51.332;6.778;2023-03-31T05:15:37;12.60;99.90
921;DHT22;447;51.332;6.778;2023-03-31T05:18:04;12.60;99.90
921;DHT22;447;51.332;6.778;2023-03-31T05:20:30;12.60;99.90
921;DHT22;447;51.332;6.778;2023-03-31T05:22:56;12.60;99.90
921;DHT22;447;51.332;6.778;2023-03-31T05:25:22;12.60;99.90
921;DHT22;447;51.332;6.778;2023-03-31T05:27:48;12.60;99.90
921;DHT22;447;51.332;6.778;2023-03-31T05:30:20;12.60;99.90
921;DHT22;447;51.332;6.778;2023-03-31T05:32:46;12.60;99.90
921;DHT22;447;51.332;6.778;2023-03-31T05:35:12;12.60;99.90
921;DHT22;447;51.332;6.778;2023-03-31T05:37:42;12.60;99.90
921;DHT22;447;51.332;6.778;2023-03-31T05:40:14;12.60;99.90
921;DHT22;447;51.332;6.778;2023-03-31T05:42:45;12.60;99.90
921;DHT22;447;51.332;6.778;2023-03-31T05:45:13;12.60;99.90
921;DHT22;447;51.332;6.778;2023-03-31T05:47:39;12.50;99.90
921;DHT22;447;51.332;6.778;2023-03-31T05:50:08;12.50;99.90
921;DHT22;447;51.332;6.778;2023-03-31T05:52:35;12.50;99.90
921;DHT22;447;51.332;6.778;2023-03-31T05:55:04;12.50;99.90
921;DHT22;447;51.332;6.778;2023-03-31T05:57:30;12.50;99.90
921;DHT22;447;51.332;6.778;2023-03-31T06:00:24;12.50;99.90
921;DHT22;447;51.332;6.778;2023-03-31T06:02:58;12.50;99.90
921;DHT22;447;51.332;6.778;2023-03-31T06:05:36;12.50;99.90
921;DHT22;447;51.332;6.778;2023-03-31T06:08:08;12.50;99.90
921;DHT22;447;51.332;6.778;2023-03-31T06:11:08;12.50;99.90
921;DHT22;447;51.332;6.778;2023-03-31T06:13:38;12.50;99.90
921;DHT22;447;51.332;6.778;2023-03-31T06:16:07;12.50;99.90
921;DHT22;447;51.332;6.778;2023-03-31T06:18:35;12.50;99.90
921;DHT22;447;51.332;6.778;2023-03-31T06:21:05;12.50;99.90
921;DHT22;447;51.332;6.778;2023-03-31T06:23:33;12.50;99.90
921;DHT22;447;51.332;6.778;2023-03-31T06:26:02;12.50;99.90
921;DHT22;447;51.332;6.778;2023-03-31T06:28:30;12.50;99.90
921;DHT22;447;51.332;6.778;2023-03-31T06:33:26;12.50;99.90
921;DHT22;447;51.332;6.778;2023-03-31T06:35:55;12.50;99.90
921;DHT22;447;51.332;6.778;2023-03-31T06:38:22;12.50;99.90
921;DHT22;447;51.332;6.778;2023-03-31T06:40:50;12.50;99.90
921;DHT22;447;51.332;6.778;2023-03-31T06:43:16;12.50;99.90
921;DHT22;447;51.332;6.778;2023-03-31T06:45:42;12.50;99.90
921;DHT22;447;51.332;6.778;2023-03-31T06:48:08;12.50;99.90
921;DHT22;447;51.332;6.778;2023-03-31T06:50:40;12.50;99.90
921;DHT22;447;51.332;6.778;2023-03-31T06:53:09;12.50;99.90
921;DHT22;447;51.332;6.778;2023-03-31T06:55:36;12.50;99.90
921;DHT22;447;51.332;6.778;2023-03-31T06:58:03;12.50;99.90
921;DHT22;447;51.332;6.778;2023-03-31T07:00:30;12.50;99.90
921;DHT22;447;51.332;6.778;2023-03-31T07:02:56;12.50;99.90
921;DHT22;447;51.332;6.778;2023-03-31T07:05:23;12.50;99.90
921;DHT22;447;51.332;6.778;2023-03-31T07:07:54;12.50;99.90
921;DHT22;447;51.332;6.778;2023-03-31T07:10:21;12.40;99.90
921;DHT22;447;51.332;6.778;2023-03-31T07:12:48;12.40;99.90
921;DHT22;447;51.332;6.778;2023-03-31T07:15:14;12.40;99.90
921;DHT22;447;51.332;6.778;2023-03-31T07:17:41;12.50;99.90
921;DHT22;447;51.332;6.778;2023-03-31T07:20:08;12.40;99.90
921;DHT22;447;51.332;6.778;2023-03-31T07:22:38;12.40;99.90
921;DHT22;447;51.332;6.778;2023-03-31T07:25:10;12.40;99.90
921;DHT22;447;51.332;6.778;2023-03-31T07:27:36;12.40;99.90
921;DHT22;447;51.332;6.778;2023-03-31T07:30:10;12.40;99.90
921;DHT22;447;51.332;6.778;2023-03-31T07:32:39;12.40;99.90
921;DHT22;447;51.332;6.778;2023-03-31T07:35:07;12.40;99.90
921;DHT22;447;51.332;6.778;2023-03-31T07:37:42;12.40;99.90
921;DHT22;447;51.332;6.778;2023-03-31T07:40:11;12.40;99.90
921;DHT22;447;51.332;6.778;2023-03-31T07:42:37;12.40;99.90
921;DHT22;447;51.332;6.778;2023-03-31T07:45:03;12.40;99.90
921;DHT22;447;51.332;6.778;2023-03-31T07:47:32;12.40;99.90
921;DHT22;447;51.332;6.778;2023-03-31T07:49:58;12.40;99.90
921;DHT22;447;51.332;6.778;2023-03-31T07:52:26;12.40;99.90
921;DHT22;447;51.332;6.778;2023-03-31T07:54:52;12.40;99.90
921;DHT22;447;51.332;6.778;2023-03-31T07:57:20;12.40;99.90
921;DHT22;447;51.332;6.778;2023-03-31T07:59:48;12.40;99.90
921;DHT22;447;51.332;6.778;2023-03-31T08:02:19;12.40;99.90
921;DHT22;447;51.332;6.778;2023-03-31T08:04:46;12.40;99.90
921;DHT22;447;51.332;6.778;2023-03-31T08:07:15;12.40;99.90
921;DHT22;447;51.332;6.778;2023-03-31T08:09:46;12.40;99.90
921;DHT22;447;51.332;6.778;2023-03-31T08:12:16;12.40;99.90
921;DHT22;447;51.332;6.778;2023-03-31T08:14:42;12.40;99.90
921;DHT22;447;51.332;6.778;2023-03-31T08:17:36;12.40;99.90
921;DHT22;447;51.332;6.778;2023-03-31T08:20:36;12.40;99.90
921;DHT22;447;51.332;6.778;2023-03-31T08:23:04;12.40;99.90
921;DHT22;447;51.332;6.778;2023-03-31T08:25:33;12.40;99.90
921;DHT22;447;51.332;6.778;2023-03-31T08:28:00;12.40;99.90
921;DHT22;447;51.332;6.778;2023-03-31T08:30:26;12.40;99.90
921;DHT22;447;51.332;6.778;2023-03-31T08:36:16;12.40;99.90
921;DHT22;447;51.332;6.778;2023-03-31T08:38:42;12.40;99.90
921;DHT22;447;51.332;6.778;2023-03-31T08:46:50;12.40;99.90
921;DHT22;447;51.332;6.778;2023-03-31T08:49:25;12.40;99.90
921;DHT22;447;51.332;6.778;2023-03-31T08:52:09;12.40;99.90
921;DHT22;447;51.332;6.778;2023-03-31T08:55:47;12.40;99.90
921;DHT22;447;51.332;6.778;2023-03-31T09:02:31;12.70;99.90
921;DHT22;447;51.332;6.778;2023-03-31T09:24:21;12.50;99.90
921;DHT22;447;51.332;6.778;2023-03-31T09:27:26;12.50;99.90
921;DHT22;447;51.332;6.778;2023-03-31T09:33:13;12.50;99.90
921;DHT22;447;51.332;6.778;2023-03-31T09:35:40;12.70;99.90
921;DHT22;447;51.332;6.778;2023-03-31T09:38:10;12.50;99.90
921;DHT22;447;51.332;6.778;2023-03-31T09:40:57;12.60;99.90
921;DHT22;447;51.332;6.778;2023-03-31T09:43:47;12.60;99.90
921;DHT22;447;51.332;6.778;2023-03-31T09:53:51;12.60;99.90
921;DHT22;447;51.332;6.778;2023-03-31T09:59:35;12.60;99.90
921;DHT22;447;51.332;6.778;2023-03-31T10:02:53;12.60;99.90
921;DHT22;447;51.332;6.778;2023-03-31T10:06:07;12.60;99.90
921;DHT22;447;51.332;6.778;2023-03-31T10:09:00;12.70;99.90
921;DHT22;447;51.332;6.778;2023-03-31T10:11:27;12.70;99.90
921;DHT22;447;51.332;6.778;2023-03-31T10:19:28;12.70;99.90
921;DHT22;447;51.332;6.778;2023-03-31T10:22:05;12.70;99.90
921;DHT22;447;51.332;6.778;2023-03-31T10:24:40;12.70;99.90
921;DHT22;447;51.332;6.778;2023-03-31T10:29:45;12.70;99.90
921;DHT22;447;51.332;6.778;2023-03-31T10:32:23;12.80;99.90
921;DHT22;447;51.332;6.778;2023-03-31T10:34:50;12.80;99.90
921;DHT22;447;51.332;6.778;2023-03-31T10:37:23;12.80;99.90
921;DHT22;447;51.332;6.778;2023-03-31T10:43:16;12.80;99.90
921;DHT22;447;51.332;6.778;2023-03-31T10:45:51;12.80;99.90
921;DHT22;447;51.332;6.778;2023-03-31T10:48:23;12.90;99.90
921;DHT22;447;51.332;6.778;2023-03-31T10:50:49;12.90;99.90
921;DHT22;447;51.332;6.778;2023-03-31T10:53:17;12.90;99.90
921;DHT22;447;51.332;6.778;2023-03-31T11:01:35;12.90;99.90
921;DHT22;447;51.332;6.778;2023-03-31T11:07:13;12.90;99.90
921;DHT22;447;51.332;6.778;2023-03-31T11:23:42;12.80;99.90
921;DHT22;447;51.332;6.778;2023-03-31T11:45:26;12.80;99.90
921;DHT22;447;51.332;6.778;2023-03-31T11:47:58;12.80;99.90
921;DHT22;447;51.332;6.778;2023-03-31T11:50:35;12.90;99.90
921;DHT22;447;51.332;6.778;2023-03-31T11:55:36;12.90;99.90
921;DHT22;447;51.332;6.778;2023-03-31T12:00:45;12.90;99.90
921;DHT22;447;51.332;6.778;2023-03-31T12:06:12;12.90;99.90
921;DHT22;447;51.332;6.778;2023-03-31T12:14:36;13.00;99.90
921;DHT22;447;51.332;6.778;2023-03-31T12:17:11;13.00;99.90
921;DHT22;447;51.332;6.778;2023-03-31T12:22:29;13.00;99.90
921;DHT22;447;51.332;6.778;2023-03-31T12:24:56;13.00;99.90
921;DHT22;447;51.332;6.778;2023-03-31T12:27:38;13.00;99.90
921;DHT22;447;51.332;6.778;2023-03-31T12:30:28;13.00;99.90
921;DHT22;447;51.332;6.778;2023-03-31T12:38:51;13.10;99.90
921;DHT22;447;51.332;6.778;2023-03-31T12:52:31;13.10;99.90
921;DHT22;447;51.332;6.778;2023-03-31T12:57:52;13.10;99.90
921;DHT22;447;51.332;6.778;2023-03-31T13:00:24;13.10;99.90
921;DHT22;447;51.332;6.778;2023-03-31T13:06:47;13.20;99.90
921;DHT22;447;51.332;6.778;2023-03-31T13:11:41;13.20;99.90
921;DHT22;447;51.332;6.778;2023-03-31T13:14:19;13.20;99.90
921;DHT22;447;51.332;6.778;2023-03-31T13:16:47;13.20;99.90
921;DHT22;447;51.332;6.778;2023-03-31T13:19:34;13.20;99.90
921;DHT22;447;51.332;6.778;2023-03-31T13:22:03;13.20;99.90
921;DHT22;447;51.332;6.778;2023-03-31T13:24:30;13.30;99.90
921;DHT22;447;51.332;6.778;2023-03-31T13:27:34;13.30;99.90
921;DHT22;447;51.332;6.778;2023-03-31T13:30:12;13.30;99.90
921;DHT22;447;51.332;6.778;2023-03-31T13:33:18;13.30;99.90
921;DHT22;447;51.332;6.778;2023-03-31T13:35:51;13.30;99.90
921;DHT22;447;51.332;6.778;2023-03-31T13:41:23;13.40;99.90
921;DHT22;447;51.332;6.778;2023-03-31T13:52:11;13.40;99.90
921;DHT22;447;51.332;6.778;2023-03-31T14:11:29;13.50;99.90
921;DHT22;447;51.332;6.778;2023-03-31T14:14:16;13.50;99.90
921;DHT22;447;51.332;6.778;2023-03-31T14:25:07;13.60;99.90
921;DHT22;447;51.332;6.778;2023-03-31T14:30:42;13.60;99.90
921;DHT22;447;51.332;6.778;2023-03-31T14:35:56;13.60;99.90
921;DHT22;447;51.332;6.778;2023-03-31T14:38:33;13.60;99.90
921;DHT22;447;51.332;6.778;2023-03-31T14:41:03;13.60;99.90
921;DHT22;447;51.332;6.778;2023-03-31T14:43:35;13.60;99.90
921;DHT22;447;51.332;6.778;2023-03-31T14:46:09;13.60;99.90
921;DHT22;447;51.332;6.778;2023-03-31T14:48:44;13.60;99.90
921;DHT22;447;51.332;6.778;2023-03-31T14:51:18;13.60;99.90
921;DHT22;447;51.332;6.778;2023-03-31T14:53:47;13.60;99.90
921;DHT22;447;51.332;6.778;2023-03-31T14:56:29;13.60;99.90
921;DHT22;447;51.332;6.778;2023-03-31T14:59:02;13.60;99.90
921;DHT22;447;51.332;6.778;2023-03-31T15:01:30;13.60;99.90
921;DHT22;447;51.332;6.778;2023-03-31T15:04:11;13.60;99.90
921;DHT22;447;51.332;6.778;2023-03-31T15:06:39;13.60;99.90
921;DHT22;447;51.332;6.778;2023-03-31T15:09:13;13.60;99.90
921;DHT22;447;51.332;6.778;2023-03-31T15:11:46;13.60;99.90
921;DHT22;447;51.332;6.778;2023-03-31T15:14:17;13.60;99.90
921;DHT22;447;51.332;6.778;2023-03-31T15:16:44;13.60;99.90
921;DHT22;447;51.332;6.778;2023-03-31T15:19:14;13.60;99.90
921;DHT22;447;51.332;6.778;2023-03-31T15:21:43;13.60;99.90
921;DHT22;447;51.332;6.778;2023-03-31T15:24:13;13.60;99.90
921;DHT22;447;51.332;6.778;2023-03-31T15:26:48;13.50;99.90
921;DHT22;447;51.332;6.778;2023-03-31T15:29:48;13.50;99.90
921;DHT22;447;51.332;6.778;2023-03-31T15:32:25;13.50;99.90
921;DHT22;447;51.332;6.778;2023-03-31T15:34:52;13.50;99.90
921;DHT22;447;51.332;6.778;2023-03-31T15:37:45;13.50;99.90
921;DHT22;447;51.332;6.778;2023-03-31T15:40:35;13.50;99.90
921;DHT22;447;51.332;6.778;2023-03-31T15:43:13;13.50;99.90
921;DHT22;447;51.332;6.778;2023-03-31T15:51:06;13.50;99.90
921;DHT22;447;51.332;6.778;2023-03-31T15:53:37;13.60;99.90
921;DHT22;447;51.332;6.778;2023-03-31T15:56:44;13.50;99.90
921;DHT22;447;51.332;6.778;2023-03-31T15:59:26;13.50;99.90
921;DHT22;447;51.332;6.778;2023-03-31T16:01:54;13.60;99.90
921;DHT22;447;51.332;6.778;2023-03-31T16:04:22;13.60;99.90
921;DHT22;447;51.332;6.778;2023-03-31T16:07:04;13.60;99.90
921;DHT22;447;51.332;6.778;2023-03-31T16:12:52;13.50;99.90
921;DHT22;447;51.332;6.778;2023-03-31T16:15:34;13.50;99.90
921;DHT22;447;51.332;6.778;2023-03-31T16:18:09;13.50;99.90
921;DHT22;447;51.332;6.778;2023-03-31T16:20:50;13.50;99.90
921;DHT22;447;51.332;6.778;2023-03-31T16:23:30;13.50;99.90
921;DHT22;447;51.332;6.778;2023-03-31T16:25:57;13.50;99.90
921;DHT22;447;51.332;6.778;2023-03-31T16:28:30;13.50;99.90
921;DHT22;447;51.332;6.778;2023-03-31T16:30:59;13.50;99.90
921;DHT22;447;51.332;6.778;2023-03-31T16:33:52;13.50;99.90
921;DHT22;447;51.332;6.778;2023-03-31T16:36:21;13.50;99.90
921;DHT22;447;51.332;6.778;2023-03-31T16:38:54;13.50;99.90
921;DHT22;447;51.332;6.778;2023-03-31T16:41:23;13.50;99.90
921;DHT22;447;51.332;6.778;2023-03-31T16:43:55;13.50;99.90
921;DHT22;447;51.332;6.778;2023-03-31T16:46:24;13.50;99.90
921;DHT22;447;51.332;6.778;2023-03-31T16:48:51;13.50;99.90
921;DHT22;447;51.332;6.778;2023-03-31T16:51:22;13.50;99.90
921;DHT22;447;51.332;6.778;2023-03-31T16:53:48;13.50;99.90
921;DHT22;447;51.332;6.778;2023-03-31T16:56:17;13.50;99.90
921;DHT22;447;51.332;6.778;2023-03-31T16:58:43;13.50;99.90
921;DHT22;447;51.332;6.778;2023-03-31T17:01:10;13.50;99.90
921;DHT22;447;51.332;6.778;2023-03-31T17:03:39;13.50;99.90
921;DHT22;447;51.332;6.778;2023-03-31T17:06:10;13.50;99.90
921;DHT22;447;51.332;6.778;2023-03-31T17:08:39;13.50;99.90
921;DHT22;447;51.332;6.778;2023-03-31T17:11:11;13.50;99.90
921;DHT22;447;51.332;6.778;2023-03-31T17:13:39;13.50;99.90
921;DHT22;447;51.332;6.778;2023-03-31T17:16:07;13.40;99.90
921;DHT22;447;51.332;6.778;2023-03-31T17:18:36;13.40;99.90
921;DHT22;447;51.332;6.778;2023-03-31T17:21:09;13.40;99.90
921;DHT22;447;51.332;6.778;2023-03-31T17:23:38;13.40;99.90
921;DHT22;447;51.332;6.778;2023-03-31T17:26:06;13.40;99.90
921;DHT22;447;51.332;6.778;2023-03-31T17:28:37;13.40;99.90
921;DHT22;447;51.332;6.778;2023-03-31T17:31:15;13.30;99.90
921;DHT22;447;51.332;6.778;2023-03-31T17:33:41;13.30;99.90
921;DHT22;447;51.332;6.778;2023-03-31T17:36:13;13.30;99.90
921;DHT22;447;51.332;6.778;2023-03-31T17:38:43;13.30;99.90
921;DHT22;447;51.332;6.778;2023-03-31T17:41:12;13.30;99.90
921;DHT22;447;51.332;6.778;2023-03-31T17:43:39;13.30;99.90
921;DHT22;447;51.332;6.778;2023-03-31T17:46:11;13.20;99.90
921;DHT22;447;51.332;6.778;2023-03-31T17:48:40;13.20;99.90
921;DHT22;447;51.332;6.778;2023-03-31T17:51:12;13.20;99.90
921;DHT22;447;51.332;6.778;2023-03-31T17:53:40;13.20;99.90
921;DHT22;447;51.332;6.778;2023-03-31T17:56:06;13.20;99.90
921;DHT22;447;51.332;6.778;2023-03-31T17:58:32;13.20;99.90
921;DHT22;447;51.332;6.778;2023-03-31T18:01:04;13.20;99.90
921;DHT22;447;51.332;6.778;2023-03-31T18:03:30;13.20;99.90
921;DHT22;447;51.332;6.778;2023-03-31T18:06:03;13.20;99.90
921;DHT22;447;51.332;6.778;2023-03-31T18:08:31;13.20;99.90
921;DHT22;447;51.332;6.778;2023-03-31T18:10:58;13.10;99.90
921;DHT22;447;51.332;6.778;2023-03-31T18:13:26;13.10;99.90
921;DHT22;447;51.332;6.778;2023-03-31T18:15:52;13.10;99.90
921;DHT22;447;51.332;6.778;2023-03-31T18:18:21;13.10;99.90
921;DHT22;447;51.332;6.778;2023-03-31T18:20:48;13.10;99.90
921;DHT22;447;51.332;6.778;2023-03-31T18:23:16;13.10;99.90
921;DHT22;447;51.332;6.778;2023-03-31T18:25:46;13.10;99.90
921;DHT22;447;51.332;6.778;2023-03-31T18:28:16;13.10;99.90
921;DHT22;447;51.332;6.778;2023-03-31T18:30:43;13.10;99.90
921;DHT22;447;51.332;6.778;2023-03-31T18:33:09;13.10;99.90
921;DHT22;447;51.332;6.778;2023-03-31T18:35:38;13.10;99.90
921;DHT22;447;51.332;6.778;2023-03-31T18:38:04;13.10;99.90
921;DHT22;447;51.332;6.778;2023-03-31T18:40:30;13.10;99.90
921;DHT22;447;51.332;6.778;2023-03-31T18:42:56;13.10;99.90
921;DHT22;447;51.332;6.778;2023-03-31T18:45:24;13.10;99.90
921;DHT22;447;51.332;6.778;2023-03-31T18:47:52;13.00;99.90
921;DHT22;447;51.332;6.778;2023-03-31T18:50:21;13.00;99.90
921;DHT22;447;51.332;6.778;2023-03-31T18:52:48;13.00;99.90
921;DHT22;447;51.332;6.778;2023-03-31T18:55:19;13.00;99.90
921;DHT22;447;51.332;6.778;2023-03-31T18:57:45;13.00;99.90
921;DHT22;447;51.332;6.778;2023-03-31T19:00:12;13.00;99.90
921;DHT22;447;51.332;6.778;2023-03-31T19:02:39;13.00;99.90
921;DHT22;447;51.332;6.778;2023-03-31T19:05:06;13.00;99.90
921;DHT22;447;51.332;6.778;2023-03-31T19:07:39;13.00;99.90
921;DHT22;447;51.332;6.778;2023-03-31T19:10:08;13.00;99.90
921;DHT22;447;51.332;6.778;2023-03-31T19:12:34;13.00;99.90
921;DHT22;447;51.332;6.778;2023-03-31T19:15:00;13.00;99.90
921;DHT22;447;51.332;6.778;2023-03-31T19:17:26;13.00;99.90
921;DHT22;447;51.332;6.778;2023-03-31T19:19:52;13.00;99.90
921;DHT22;447;51.332;6.778;2023-03-31T19:22:21;13.00;99.90
921;DHT22;447;51.332;6.778;2023-03-31T19:24:49;13.00;99.90
921;DHT22;447;51.332;6.778;2023-03-31T19:27:18;13.00;99.90
921;DHT22;447;51.332;6.778;2023-03-31T19:29:44;13.00;99.90
921;DHT22;447;51.332;6.778;2023-03-31T19:32:10;13.00;99.90
921;DHT22;447;51.332;6.778;2023-03-31T19:34:38;13.00;99.90
921;DHT22;447;51.332;6.778;2023-03-31T19:37:05;12.90;99.90
921;DHT22;447;51.332;6.778;2023-03-31T19:39:31;12.90;99.90
921;DHT22;447;51.332;6.778;2023-03-31T19:41:57;12.90;99.90
921;DHT22;447;51.332;6.778;2023-03-31T19:44:26;12.90;99.90
921;DHT22;447;51.332;6.778;2023-03-31T19:46:56;12.90;99.90
921;DHT22;447;51.332;6.778;2023-03-31T19:49:26;12.90;99.90
921;DHT22;447;51.332;6.778;2023-03-31T19:51:56;12.90;99.90
921;DHT22;447;51.332;6.778;2023-03-31T19:54:22;12.90;99.90
921;DHT22;447;51.332;6.778;2023-03-31T19:56:49;12.90;99.90
921;DHT22;447;51.332;6.778;2023-03-31T19:59:15;12.90;99.90
921;DHT22;447;51.332;6.778;2023-03-31T20:01:41;12.90;99.90
921;DHT22;447;51.332;6.778;2023-03-31T20:04:07;12.90;99.90
921;DHT22;447;51.332;6.778;2023-03-31T20:06:36;12.90;99.90
921;DHT22;447;51.332;6.778;2023-03-31T20:09:05;12.90;99.90
921;DHT22;447;51.332;6.778;2023-03-31T20:11:31;12.90;99.90
921;DHT22;447;51.332;6.778;2023-03-31T20:14:00;12.90;99.90
921;DHT22;447;51.332;6.778;2023-03-31T20:16:30;12.90;99.90
921;DHT22;447;51.332;6.778;2023-03-31T20:19:03;12.90;99.90
921;DHT22;447;51.332;6.778;2023-03-31T20:21:31;12.90;99.90
921;DHT22;447;51.332;6.778;2023-03-31T20:24:02;12.90;99.90
921;DHT22;447;51.332;6.778;2023-03-31T20:26:33;12.90;99.90
921;DHT22;447;51.332;6.778;2023-03-31T20:29:00;12.90;99.90
921;DHT22;447;51.332;6.778;2023-03-31T20:31:29;12.80;99.90
921;DHT22;447;51.332;6.778;2023-03-31T20:34:07;12.90;99.90
921;DHT22;447;51.332;6.778;2023-03-31T20:36:37;12.80;99.90
921;DHT22;447;51.332;6.778;2023-03-31T20:39:05;12.80;99.90
921;DHT22;447;51.332;6.778;2023-03-31T20:41:35;12.80;99.90
921;DHT22;447;51.332;6.778;2023-03-31T20:44:06;12.80;99.90
921;DHT22;447;51.332;6.778;2023-03-31T20:46:34;12.80;99.90
921;DHT22;447;51.332;6.778;2023-03-31T20:49:00;12.80;99.90
921;DHT22;447;51.332;6.778;2023-03-31T20:51:31;12.80;99.90
921;DHT22;447;51.332;6.778;2023-03-31T20:54:00;12.80;99.90
921;DHT22;447;51.332;6.778;2023-03-31T20:56:30;12.80;99.90
921;DHT22;447;51.332;6.778;2023-03-31T20:59:00;12.80;99.90
921;DHT22;447;51.332;6.778;2023-03-31T21:01:33;12.80;99.90
921;DHT22;447;51.332;6.778;2023-03-31T21:04:03;12.80;99.90
921;DHT22;447;51.332;6.778;2023-03-31T21:06:37;12.80;99.90
921;DHT22;447;51.332;6.778;2023-03-31T21:09:06;12.70;99.90